Time;durP1;ratioP1;P1;durP2;ratioP2;P2;SDS_P1;SDS_P2;PMS_P1;PMS_P2;Temp;Humidity;BMP_temperature;BMP_pressure;BME280_temperature;BME280_humidity;BME280_pressure;Samples;Min_cycle;Max_cycle;Signal;HPM_P1;HPM_P2
2023/07/10 00:01:20;;;;;;;5.03;3.17;;;19.20;99.90;;;;;;5072851;28;20169;-76
2023/07/10 00:03:46;;;;;;;4.15;2.95;;;19.30;99.90;;;;;;5072966;28;20208;-75
2023/07/10 00:06:13;;;;;;;6.25;3.28;;;19.20;99.90;;;;;;5073079;28;20172;-76
2023/07/10 00:08:39;;;;;;;7.68;2.83;;;19.30;99.90;;;;;;5072977;28;20169;-76
2023/07/10 00:11:17;;;;;;;4.85;3.05;;;19.30;99.90;;;;;;5072736;28;20177;-75
2023/07/10 00:13:44;;;;;;;2.85;2.53;;;19.40;99.90;;;;;;5072991;28;20635;-75
2023/07/10 00:16:19;;;;;;;4.53;2.75;;;19.40;99.90;;;;;;5075318;28;20184;-76
2023/07/10 00:18:45;;;;;;;5.20;2.85;;;19.30;99.90;;;;;;5076615;28;20168;-76
2023/07/10 00:21:11;;;;;;;3.97;2.50;;;19.30;99.90;;;;;;5076630;28;20165;-76
2023/07/10 00:23:37;;;;;;;5.50;2.55;;;19.30;99.90;;;;;;5076460;28;20216;-76
2023/07/10 00:26:17;;;;;;;4.93;2.65;;;19.40;99.90;;;;;;5076212;28;20169;-75
2023/07/10 00:28:43;;;;;;;3.83;2.80;;;19.50;99.90;;;;;;5076398;28;20664;-76
2023/07/10 00:31:09;;;;;;;4.05;2.30;;;19.50;99.90;;;;;;5058510;28;20168;-75
2023/07/10 00:33:34;;;;;;;4.38;2.80;;;19.50;99.90;;;;;;5076198;28;20180;-75
2023/07/10 00:36:00;;;;;;;4.55;2.65;;;19.60;99.90;;;;;;5076401;28;20172;-76
2023/07/10 00:38:29;;;;;;;3.22;2.38;;;19.60;98.60;;;;;;5076109;28;20570;-75
2023/07/10 00:40:57;;;;;;;3.33;2.50;;;19.60;99.30;;;;;;5075924;28;20168;-75
2023/07/10 00:43:34;;;;;;;3.25;2.15;;;19.60;94.00;;;;;;5076157;28;20247;-76
2023/07/10 00:46:16;;;;;;;4.53;2.70;;;19.50;97.20;;;;;;5076023;28;20619;-76
2023/07/10 00:48:52;;;;;;;5.78;2.47;;;19.50;93.10;;;;;;5076295;28;20250;-76
2023/07/10 00:51:26;;;;;;;3.53;2.65;;;19.40;92.10;;;;;;5058145;28;20207;-77
2023/07/10 00:53:53;;;;;;;3.58;2.97;;;19.40;91.00;;;;;;5075626;28;20258;-77
2023/07/10 00:56:19;;;;;;;4.83;3.03;;;19.40;83.90;;;;;;5075810;28;20157;-76
2023/07/10 00:58:48;;;;;;;7.43;4.43;;;19.40;86.00;;;;;;5076062;28;20207;-76
2023/07/10 01:01:17;;;;;;;5.55;4.35;;;19.40;88.70;;;;;;5075763;28;20271;-76
2023/07/10 01:03:45;;;;;;;4.72;3.97;;;19.30;85.00;;;;;;5075857;28;20212;-76
2023/07/10 01:06:21;;;;;;;5.55;4.65;;;19.30;85.30;;;;;;5075715;28;20165;-76
2023/07/10 01:08:57;;;;;;;7.45;4.82;;;19.20;90.20;;;;;;5075760;28;20326;-76
2023/07/10 01:11:23;;;;;;;8.52;5.07;;;19.20;91.60;;;;;;5075935;28;20172;-76
2023/07/10 01:13:51;;;;;;;7.70;5.75;;;19.20;92.40;;;;;;5057718;28;20175;-76
2023/07/10 01:16:19;;;;;;;8.60;5.30;;;19.20;94.40;;;;;;5075532;28;20192;-76
2023/07/10 01:18:45;;;;;;;7.88;5.18;;;19.10;93.70;;;;;;5075564;28;20195;-76
2023/07/10 01:21:27;;;;;;;6.28;5.20;;;19.00;95.80;;;;;;5075621;28;20627;-75
2023/07/10 01:23:54;;;;;;;9.27;4.97;;;19.00;96.00;;;;;;5075253;28;20250;-74
2023/07/10 01:26:20;;;;;;;5.38;3.83;;;19.00;96.90;;;;;;5075302;28;20175;-76
2023/07/10 01:28:46;;;;;;;4.35;3.42;;;19.00;98.40;;;;;;5075355;28;20173;-75
2023/07/10 01:31:15;;;;;;;4.38;3.63;;;19.00;94.50;;;;;;5075532;28;20165;-76
2023/07/10 01:33:49;;;;;;;5.47;3.60;;;19.00;95.40;;;;;;5075383;28;20177;-76
2023/07/10 01:36:19;;;;;;;6.72;3.90;;;19.00;94.70;;;;;;5075152;28;20216;-76
2023/07/10 01:38:48;;;;;;;3.67;2.90;;;19.00;93.20;;;;;;5074619;28;20227;-76
2023/07/10 01:41:38;;;;;;;3.83;3.08;;;19.00;96.20;;;;;;5075152;28;20187;-76
2023/07/10 01:44:23;;;;;;;5.80;2.90;;;19.00;93.70;;;;;;5075044;28;20226;-76
2023/07/10 01:46:50;;;;;;;4.22;2.65;;;18.90;95.30;;;;;;5061104;28;20219;-77
2023/07/10 01:49:20;;;;;;;3.60;2.63;;;18.90;95.30;;;;;;5075004;28;20704;-75
2023/07/10 01:51:46;;;;;;;3.88;2.85;;;18.80;97.90;;;;;;5075071;28;20176;-75
2023/07/10 01:54:14;;;;;;;4.38;2.50;;;18.80;98.00;;;;;;5074700;28;20222;-76
2023/07/10 01:56:41;;;;;;;2.58;2.38;;;18.80;98.60;;;;;;5074944;28;20196;-75
2023/07/10 01:59:07;;;;;;;4.05;2.90;;;18.70;97.90;;;;;;5074818;28;20187;-76
2023/07/10 02:01:32;;;;;;;2.42;2.22;;;18.60;99.90;;;;;;5074843;28;20164;-76
2023/07/10 02:03:58;;;;;;;3.92;2.90;;;18.60;99.90;;;;;;5074835;28;20204;-76
2023/07/10 02:06:25;;;;;;;6.43;3.22;;;18.70;99.90;;;;;;5074258;28;20231;-75
2023/07/10 02:08:50;;;;;;;3.33;2.90;;;18.70;99.90;;;;;;5074771;28;20219;-75
2023/07/10 02:11:16;;;;;;;4.30;3.00;;;18.70;99.90;;;;;;5074708;28;20521;-75
2023/07/10 02:13:42;;;;;;;4.93;3.15;;;18.70;99.90;;;;;;5074616;28;20161;-75
2023/07/10 02:16:10;;;;;;;4.88;3.13;;;18.70;99.90;;;;;;5074109;28;20334;-77
2023/07/10 02:18:36;;;;;;;4.03;3.20;;;18.70;99.90;;;;;;5074436;28;20168;-75
2023/07/10 02:21:02;;;;;;;5.50;3.23;;;18.60;99.90;;;;;;5074153;28;20179;-74
2023/07/10 02:23:28;;;;;;;5.15;3.10;;;18.60;99.90;;;;;;5074019;28;20694;-75
2023/07/10 02:25:54;;;;;;;4.10;3.15;;;18.60;99.90;;;;;;5074111;28;20214;-74
2023/07/10 02:28:19;;;;;;;5.78;3.30;;;18.60;99.90;;;;;;5073985;28;20176;-76
2023/07/10 02:30:45;;;;;;;5.18;3.28;;;18.60;99.90;;;;;;5074118;28;20242;-74
2023/07/10 02:33:11;;;;;;;6.75;3.90;;;18.50;99.90;;;;;;5073918;28;20196;-75
2023/07/10 02:35:36;;;;;;;6.05;4.13;;;18.50;99.90;;;;;;5073761;28;20226;-76
2023/07/10 02:38:02;;;;;;;5.38;3.92;;;18.40;99.90;;;;;;5072999;28;20222;-76
2023/07/10 02:40:27;;;;;;;5.28;3.85;;;18.30;99.90;;;;;;5073716;28;20185;-75
2023/07/10 02:42:53;;;;;;;9.20;4.78;;;18.30;99.90;;;;;;5073734;28;20308;-75
2023/07/10 02:45:19;;;;;;;6.22;4.80;;;18.30;99.90;;;;;;5073877;28;20623;-75
2023/07/10 02:47:45;;;;;;;5.35;4.50;;;18.40;99.90;;;;;;5074010;28;20252;-75
2023/07/10 02:50:11;;;;;;;7.13;4.47;;;18.40;99.90;;;;;;5073422;28;20169;-76
2023/07/10 02:52:36;;;;;;;6.57;4.80;;;18.50;99.90;;;;;;5073730;28;20180;-75
2023/07/10 02:55:02;;;;;;;6.75;5.40;;;18.50;99.90;;;;;;5073536;28;20176;-75
2023/07/10 02:57:28;;;;;;;8.15;4.88;;;18.50;99.90;;;;;;5073099;28;20176;-74
2023/07/10 02:59:53;;;;;;;7.10;4.75;;;18.40;99.90;;;;;;5073593;28;20177;-76
2023/07/10 03:02:19;;;;;;;8.27;5.38;;;18.40;99.90;;;;;;5073501;28;20283;-75
2023/07/10 03:04:45;;;;;;;10.02;4.90;;;18.40;99.90;;;;;;5073112;28;20164;-75
2023/07/10 03:07:11;;;;;;;7.82;5.10;;;18.40;99.90;;;;;;5073569;28;20225;-76
2023/07/10 03:09:36;;;;;;;6.22;4.90;;;18.40;99.90;;;;;;5073700;28;20172;-76
2023/07/10 03:12:02;;;;;;;5.93;4.97;;;18.40;99.90;;;;;;5073293;28;20666;-75
2023/07/10 03:14:28;;;;;;;9.82;5.18;;;18.40;99.90;;;;;;5055223;28;20215;-76
2023/07/10 03:16:53;;;;;;;9.77;4.87;;;18.30;99.90;;;;;;5073444;28;20165;-76
2023/07/10 03:19:19;;;;;;;8.57;4.88;;;18.30;99.90;;;;;;5072618;28;20687;-76
2023/07/10 03:21:45;;;;;;;5.95;4.35;;;18.30;99.90;;;;;;5073197;28;20183;-76
2023/07/10 03:24:12;;;;;;;5.13;4.57;;;18.30;99.90;;;;;;5073001;28;20569;-76
2023/07/10 03:26:38;;;;;;;6.43;4.47;;;18.20;99.90;;;;;;5073180;28;20165;-76
2023/07/10 03:29:09;;;;;;;5.50;4.27;;;18.20;99.90;;;;;;5055169;28;20180;-75
2023/07/10 03:31:34;;;;;;;7.03;4.97;;;18.10;99.90;;;;;;5073031;28;20211;-75
2023/07/10 03:34:00;;;;;;;7.13;4.77;;;18.10;99.90;;;;;;5072525;28;20173;-75
2023/07/10 03:36:26;;;;;;;7.07;4.30;;;18.10;99.90;;;;;;5073100;28;20172;-75
2023/07/10 03:38:51;;;;;;;8.40;4.53;;;18.00;99.90;;;;;;5072612;28;20259;-75
2023/07/10 03:41:17;;;;;;;8.47;4.33;;;18.10;99.90;;;;;;5055039;28;20655;-76
2023/07/10 03:43:42;;;;;;;5.00;4.50;;;18.10;99.90;;;;;;5073249;28;20232;-75
2023/07/10 03:46:10;;;;;;;7.43;4.77;;;18.10;99.90;;;;;;5072607;28;20514;-75
2023/07/10 03:48:36;;;;;;;6.23;3.97;;;18.10;99.90;;;;;;5072596;28;20177;-75
2023/07/10 03:51:02;;;;;;;6.93;4.37;;;18.10;99.90;;;;;;5075222;28;20169;-75
2023/07/10 03:53:28;;;;;;;8.60;5.33;;;18.10;99.90;;;;;;5076782;28;20172;-75
2023/07/10 03:55:55;;;;;;;7.27;4.73;;;18.10;99.90;;;;;;5076861;28;20176;-75
2023/07/10 03:58:31;;;;;;;6.17;5.07;;;18.10;99.90;;;;;;5076814;28;20195;-75
2023/07/10 04:00:58;;;;;;;7.47;5.43;;;18.10;99.90;;;;;;5076789;28;20164;-75
2023/07/10 04:03:28;;;;;;;7.70;6.20;;;18.30;99.90;;;;;;5058373;28;20299;-75
2023/07/10 04:05:55;;;;;;;6.45;5.00;;;18.40;99.90;;;;;;5076549;28;20277;-76
2023/07/10 04:08:21;;;;;;;7.65;6.03;;;18.60;99.90;;;;;;5076497;28;20179;-76
2023/07/10 04:10:52;;;;;;;7.55;4.85;;;18.70;99.90;;;;;;5076546;28;20172;-76
2023/07/10 04:13:19;;;;;;;7.00;5.03;;;19.00;99.90;;;;;;5076132;28;20192;-75
2023/07/10 04:15:59;;;;;;;10.10;5.40;;;19.40;99.90;;;;;;5076149;28;20184;-76
2023/07/10 04:18:31;;;;;;;8.43;5.18;;;20.10;99.90;;;;;;5076147;28;20161;-76
2023/07/10 04:20:58;;;;;;;7.18;5.30;;;20.60;83.90;;;;;;5076283;28;20180;-76
2023/07/10 04:23:24;;;;;;;8.57;5.00;;;21.00;62.80;;;;;;5075887;28;20734;-75
2023/07/10 04:25:49;;;;;;;7.05;4.95;;;21.60;37.60;;;;;;5076387;28;20176;-75
2023/07/10 04:28:15;;;;;;;8.00;4.97;;;22.20;28.40;;;;;;5075961;28;20176;-77
2023/07/10 04:30:41;;;;;;;7.47;5.03;;;22.70;13.10;;;;;;5076026;28;20177;-79
2023/07/10 04:33:08;;;;;;;8.70;4.75;;;23.50;1.00;;;;;;5075315;28;20172;-77
2023/07/10 04:35:34;;;;;;;7.03;4.45;;;23.90;1.00;;;;;;5075951;28;20690;-79
2023/07/10 04:38:00;;;;;;;7.28;5.03;;;24.50;1.00;;;;;;5075810;28;20176;-78
2023/07/10 04:40:25;;;;;;;11.68;4.90;;;24.70;1.00;;;;;;5076170;28;20180;-79
2023/07/10 04:42:51;;;;;;;7.38;4.43;;;25.30;1.00;;;;;;5075057;28;20212;-78
2023/07/10 04:45:17;;;;;;;9.82;4.65;;;26.10;1.00;;;;;;5075660;28;20179;-78
2023/07/10 04:47:43;;;;;;;9.63;4.78;;;26.80;1.00;;;;;;5074831;28;20168;-78
2023/07/10 04:50:09;;;;;;;6.85;4.55;;;27.30;1.00;;;;;;5057407;28;20530;-79
2023/07/10 04:52:34;;;;;;;10.35;4.45;;;27.40;1.00;;;;;;5075460;28;20558;-78
2023/07/10 04:55:00;;;;;;;5.20;4.40;;;27.60;1.00;;;;;;5075182;28;20184;-79
2023/07/10 04:57:26;;;;;;;6.68;4.82;;;27.70;99.90;;;;;;5075502;28;20172;-79
2023/07/10 04:59:52;;;;;;;7.68;5.03;;;27.10;1.00;;;;;;5075377;28;20180;-76
2023/07/10 05:02:17;;;;;;;5.30;4.70;;;27.50;1.00;;;;;;5074326;28;20168;-78
2023/07/10 05:04:43;;;;;;;5.65;4.70;;;28.30;99.90;;;;;;5075453;28;20370;-78
2023/07/10 05:07:09;;;;;;;6.43;4.18;;;29.40;99.90;;;;;;5075276;28;20161;-77
2023/07/10 05:09:35;;;;;;;6.40;4.65;;;30.20;1.00;;;;;;5057209;28;20588;-77
2023/07/10 05:12:01;;;;;;;6.88;4.07;;;30.50;1.00;;;;;;5075284;28;20251;-77
2023/07/10 05:14:26;;;;;;;4.63;4.15;;;30.60;1.00;;;;;;5075106;28;20216;-76
2023/07/10 05:16:52;;;;;;;6.22;4.55;;;30.80;1.00;;;;;;5074670;28;20612;-76
2023/07/10 05:19:18;;;;;;;6.80;5.10;;;30.70;1.00;;;;;;5074884;28;20222;-76
2023/07/10 05:21:43;;;;;;;5.60;3.90;;;30.50;99.90;;;;;;5075286;28;20557;-75
2023/07/10 05:24:09;;;;;;;7.35;4.28;;;31.00;99.90;;;;;;5074724;28;20212;-75
2023/07/10 05:26:35;;;;;;;5.05;3.90;;;31.80;99.90;;;;;;5074522;28;20168;-76
2023/07/10 05:29:00;;;;;;;5.82;4.15;;;32.60;1.00;;;;;;5075077;28;20628;-75
2023/07/10 05:31:26;;;;;;;6.25;4.47;;;33.10;99.90;;;;;;5074503;28;20192;-75
2023/07/10 05:33:52;;;;;;;5.85;3.95;;;33.20;99.90;;;;;;5074800;28;20636;-74
2023/07/10 05:36:19;;;;;;;4.80;4.00;;;33.60;1.00;;;;;;5074393;28;20173;-75
2023/07/10 05:38:48;;;;;;;6.13;3.85;;;34.20;1.00;;;;;;5074384;28;20250;-75
2023/07/10 05:41:18;;;;;;;4.60;4.15;;;34.20;1.00;;;;;;5074671;28;20234;-77
2023/07/10 05:43:44;;;;;;;6.07;3.60;;;33.30;1.00;;;;;;5074377;28;20294;-75
2023/07/10 05:46:11;;;;;;;4.55;3.95;;;33.30;99.90;;;;;;5074426;28;20179;-75
2023/07/10 05:48:37;;;;;;;4.93;3.38;;;33.60;1.00;;;;;;5074513;28;20188;-76
2023/07/10 05:51:02;;;;;;;3.90;3.38;;;34.50;1.00;;;;;;5073943;28;20307;-76
2023/07/10 05:53:28;;;;;;;4.45;3.55;;;33.90;1.00;;;;;;5074209;28;20251;-76
2023/07/10 05:55:55;;;;;;;3.58;3.05;;;32.60;14.50;;;;;;5073165;28;20213;-76
2023/07/10 05:58:24;;;;;;;5.22;3.70;;;32.70;1.00;;;;;;5073867;28;20176;-77
2023/07/10 06:00:52;;;;;;;4.93;3.75;;;32.90;1.00;;;;;;5074184;28;20173;-77
2023/07/10 06:03:18;;;;;;;4.50;3.60;;;32.40;1.00;;;;;;5073330;28;20291;-77
2023/07/10 06:05:56;;;;;;;6.05;3.90;;;32.30;99.90;;;;;;5074460;28;20192;-76
2023/07/10 06:08:22;;;;;;;5.32;3.53;;;32.80;99.90;;;;;;5074113;28;20175;-77
2023/07/10 06:10:49;;;;;;;4.97;3.15;;;33.50;1.00;;;;;;5074035;28;20177;-76
2023/07/10 06:13:14;;;;;;;4.95;3.15;;;33.60;1.00;;;;;;5071888;28;20208;-77
2023/07/10 06:15:45;;;;;;;5.78;3.38;;;34.00;1.00;;;;;;5073586;28;20227;-76
2023/07/10 06:18:11;;;;;;;4.68;2.78;;;34.80;1.00;;;;;;5074146;28;20169;-78
2023/07/10 06:20:36;;;;;;;4.32;2.60;;;35.10;99.90;;;;;;5055923;28;20226;-78
2023/07/10 06:23:02;;;;;;;4.20;2.97;;;35.00;99.90;;;;;;5074106;28;20703;-78
2023/07/10 06:25:28;;;;;;;4.55;2.97;;;35.10;99.90;;;;;;5073391;28;20177;-78
2023/07/10 06:27:53;;;;;;;5.93;3.05;;;36.10;99.90;;;;;;5073727;28;20264;-78
2023/07/10 06:30:19;;;;;;;3.60;2.80;;;35.30;99.90;;;;;;5074284;28;20252;-78
2023/07/10 06:32:44;;;;;;;5.30;3.45;;;35.10;99.90;;;;;;5073456;28;20173;-78
2023/07/10 06:35:13;;;;;;;3.33;2.75;;;35.90;99.90;;;;;;5073727;28;20172;-78
2023/07/10 06:37:43;;;;;;;7.70;3.53;;;36.20;99.90;;;;;;5040538;28;20173;-80
2023/07/10 06:40:14;;;;;;;5.13;3.83;;;37.20;99.90;;;;;;5076006;28;20732;-80
2023/07/10 06:42:41;;;;;;;6.38;3.22;;;36.80;99.90;;;;;;5057438;28;20200;-80
2023/07/10 06:45:09;;;;;;;3.50;3.00;;;36.90;99.90;;;;;;5077236;28;20623;-80
2023/07/10 06:47:39;;;;;;;3.70;3.03;;;37.30;99.90;;;;;;5076682;28;20186;-80
2023/07/10 06:50:06;;;;;;;6.15;2.95;;;38.00;99.90;;;;;;5077098;28;20176;-81
2023/07/10 06:52:33;;;;;;;8.18;3.10;;;38.10;99.90;;;;;;5075698;28;20160;-80
2023/07/10 06:54:58;;;;;;;6.15;3.30;;;38.50;99.90;;;;;;5074607;28;20194;-82
2023/07/10 06:57:24;;;;;;;3.00;2.25;;;38.90;99.90;;;;;;5073209;28;20167;-82
2023/07/10 06:59:49;;;;;;;2.38;2.10;;;37.80;99.90;;;;;;5076618;28;20511;-81
2023/07/10 07:02:15;;;;;;;3.97;2.60;;;36.10;99.90;;;;;;5074680;28;20179;-81
2023/07/10 07:04:41;;;;;;;3.92;2.60;;;36.80;99.90;;;;;;5073300;28;20583;-78
2023/07/10 07:07:08;;;;;;;4.03;1.98;;;37.10;99.90;;;;;;5072383;28;20191;-77
2023/07/10 07:09:34;;;;;;;2.47;1.95;;;37.10;99.90;;;;;;5055424;28;20180;-78
2023/07/10 07:12:00;;;;;;;3.28;1.92;;;37.20;99.90;;;;;;5072546;28;20321;-79
2023/07/10 07:14:26;;;;;;;5.10;2.10;;;36.70;99.90;;;;;;5072454;28;20663;-79
2023/07/10 07:16:51;;;;;;;2.60;2.08;;;36.30;99.90;;;;;;5072512;28;20647;-77
2023/07/10 07:19:17;;;;;;;1.75;1.60;;;34.90;99.90;;;;;;5072391;28;20184;-78
2023/07/10 07:21:43;;;;;;;3.00;1.88;;;36.00;99.90;;;;;;5069303;28;20597;-77
2023/07/10 07:24:08;;;;;;;3.05;1.90;;;36.00;99.90;;;;;;5064348;28;20226;-75
2023/07/10 07:26:35;;;;;;;2.30;1.65;;;35.20;99.90;;;;;;5063451;28;20168;-76
2023/07/10 07:29:01;;;;;;;2.08;1.98;;;36.50;99.90;;;;;;5069009;28;20188;-76
2023/07/10 07:31:26;;;;;;;3.13;1.80;;;37.10;99.90;;;;;;5054431;28;20264;-77
2023/07/10 07:33:54;;;;;;;3.83;1.95;;;38.10;99.90;;;;;;5069235;28;20184;-77
2023/07/10 07:36:20;;;;;;;2.58;1.80;;;38.40;99.90;;;;;;5070169;28;20172;-77
2023/07/10 07:38:46;;;;;;;2.78;1.70;;;38.10;97.30;;;;;;5052960;28;20220;-76
2023/07/10 07:41:12;;;;;;;2.33;1.60;;;37.90;91.90;;;;;;5066635;28;20176;-76
2023/07/10 07:43:38;;;;;;;1.90;1.60;;;35.90;94.00;;;;;;5068643;28;20220;-75
2023/07/10 07:46:03;;;;;;;2.17;1.65;;;35.10;99.90;;;;;;5068127;28;20186;-75
2023/07/10 07:48:29;;;;;;;1.98;1.50;;;35.10;99.90;;;;;;5060747;28;20191;-76
2023/07/10 07:51:07;;;;;;;1.92;1.60;;;35.00;99.90;;;;;;5056000;28;20259;-78
2023/07/10 07:53:35;;;;;;;3.33;1.80;;;35.30;99.90;;;;;;5063318;28;20175;-75
2023/07/10 07:56:01;;;;;;;2.83;1.75;;;36.60;99.90;;;;;;5066966;28;20253;-75
2023/07/10 07:58:28;;;;;;;4.53;1.60;;;37.60;99.90;;;;;;5066494;28;20654;-75
2023/07/10 08:00:54;;;;;;;2.25;1.67;;;37.90;99.90;;;;;;5066388;28;20226;-76
2023/07/10 08:03:20;;;;;;;2.30;1.80;;;38.00;99.90;;;;;;5068177;28;20227;-77
2023/07/10 08:05:46;;;;;;;2.45;1.80;;;37.10;99.90;;;;;;5069320;28;20168;-77
2023/07/10 08:08:12;;;;;;;2.38;1.58;;;37.70;99.90;;;;;;5066290;28;20186;-76
2023/07/10 08:10:41;;;;;;;3.10;1.90;;;37.80;99.90;;;;;;5035349;28;20271;-78
2023/07/10 08:13:09;;;;;;;1.60;1.50;;;38.10;99.90;;;;;;5062195;28;20176;-76
2023/07/10 08:15:34;;;;;;;5.25;2.42;;;38.30;93.10;;;;;;5059317;28;20340;-74
2023/07/10 08:18:00;;;;;;;3.67;1.67;;;38.20;89.60;;;;;;5054428;28;20715;-74
2023/07/10 08:20:26;;;;;;;3.53;1.77;;;38.80;85.70;;;;;;5066187;28;20172;-75
2023/07/10 08:22:51;;;;;;;3.55;1.92;;;38.80;76.60;;;;;;5061780;28;20301;-75
2023/07/10 08:25:17;;;;;;;4.30;2.50;;;39.20;70.40;;;;;;5054003;28;20223;-75
2023/07/10 08:27:44;;;;;;;3.22;1.92;;;39.20;57.60;;;;;;5057331;28;20179;-75
2023/07/10 08:30:10;;;;;;;3.50;1.95;;;38.20;47.90;;;;;;5068749;28;20634;-76
2023/07/10 08:32:36;;;;;;;2.72;2.03;;;37.60;54.80;;;;;;5063746;28;20180;-73
2023/07/10 08:35:02;;;;;;;4.15;1.95;;;36.70;81.10;;;;;;5062833;28;20177;-73
2023/07/10 08:37:28;;;;;;;3.40;1.73;;;36.90;80.30;;;;;;5074502;28;20261;-73
2023/07/10 08:39:55;;;;;;;1.90;1.80;;;37.10;79.80;;;;;;5072547;28;20212;-74
2023/07/10 08:42:29;;;;;;;2.22;1.65;;;37.10;99.00;;;;;;5071525;28;20184;-74
2023/07/10 08:44:55;;;;;;;3.80;1.65;;;37.50;72.70;;;;;;5072597;28;20191;-74
2023/07/10 08:47:46;;;;;;;3.33;2.00;;;37.30;61.00;;;;;;5072075;28;20191;-75
2023/07/10 08:50:22;;;;;;;1.92;1.45;;;36.70;63.00;;;;;;5058148;28;20191;-73
2023/07/10 08:53:05;;;;;;;3.53;1.42;;;36.70;63.10;;;;;;5062591;28;20188;-73
2023/07/10 08:55:47;;;;;;;1.77;1.40;;;36.40;67.90;;;;;;5057748;28;20189;-73
2023/07/10 08:58:20;;;;;;;2.35;1.55;;;36.10;81.20;;;;;;5050965;28;20181;-73
2023/07/10 09:00:47;;;;;;;1.85;1.70;;;35.80;79.00;;;;;;5064246;28;20180;-72
2023/07/10 09:03:22;;;;;;;2.45;1.40;;;36.30;90.60;;;;;;5052684;28;20907;-72
2023/07/10 09:05:51;;;;;;;3.25;1.45;;;36.00;83.80;;;;;;5066793;28;20187;-71
2023/07/10 09:08:18;;;;;;;2.13;1.60;;;36.10;84.80;;;;;;5074510;28;20291;-74
2023/07/10 09:10:50;;;;;;;1.55;1.45;;;36.80;75.40;;;;;;5068716;28;20632;-74
2023/07/10 09:13:24;;;;;;;3.40;1.45;;;36.90;69.10;;;;;;5067370;28;20197;-74
2023/07/10 09:15:55;;;;;;;4.82;1.35;;;37.60;64.40;;;;;;5071440;28;20239;-73
2023/07/10 09:18:32;;;;;;;1.90;1.40;;;36.60;53.60;;;;;;5072726;28;20188;-75
2023/07/10 09:21:00;;;;;;;1.92;1.30;;;36.70;52.20;;;;;;5057954;28;20183;-71
2023/07/10 09:23:29;;;;;;;3.22;1.52;;;36.20;43.50;;;;;;5066513;28;20227;-73
2023/07/10 09:25:58;;;;;;;2.80;1.60;;;36.90;48.80;;;;;;5072524;28;20643;-70
2023/07/10 09:28:25;;;;;;;4.28;1.70;;;37.10;46.70;;;;;;5070818;28;20207;-74
2023/07/10 09:31:08;;;;;;;1.92;1.40;;;37.90;42.80;;;;;;5065706;28;20217;-72
2023/07/10 09:34:01;;;;;;;2.40;1.60;;;38.40;39.30;;;;;;5061446;28;20653;-72
2023/07/10 09:36:27;;;;;;;2.72;1.60;;;38.50;31.90;;;;;;5053780;28;20173;-72
2023/07/10 09:38:53;;;;;;;3.50;1.58;;;39.10;27.10;;;;;;5070519;28;20274;-72
2023/07/10 09:41:22;;;;;;;2.40;1.70;;;39.10;21.10;;;;;;5057554;28;20171;-72
2023/07/10 09:43:57;;;;;;;3.47;1.70;;;38.80;15.00;;;;;;5067007;28;20250;-72
2023/07/10 09:46:35;;;;;;;3.15;1.58;;;38.20;13.80;;;;;;5073112;28;20179;-71
2023/07/10 09:49:10;;;;;;;1.42;1.27;;;36.90;13.40;;;;;;5068251;28;20180;-73
2023/07/10 09:51:37;;;;;;;3.50;1.83;;;36.20;18.10;;;;;;5052024;28;20180;-71
2023/07/10 09:54:06;;;;;;;1.77;1.55;;;36.60;28.20;;;;;;5051729;28;20184;-72
2023/07/10 09:56:38;;;;;;;2.08;1.65;;;35.60;30.90;;;;;;5052934;28;20181;-72
2023/07/10 09:59:22;;;;;;;3.10;1.42;;;35.00;56.60;;;;;;5062841;28;20638;-72
2023/07/10 10:01:50;;;;;;;2.55;1.80;;;35.00;91.80;;;;;;5073218;28;20184;-73
2023/07/10 10:04:28;;;;;;;2.30;1.73;;;33.20;99.90;;;;;;5061618;28;20205;-72
2023/07/10 10:07:07;;;;;;;2.55;1.70;;;32.70;99.90;;;;;;5052967;28;20628;-71
2023/07/10 10:09:34;;;;;;;1.98;1.75;;;33.10;99.90;;;;;;5070483;28;20176;-74
2023/07/10 10:12:17;;;;;;;2.03;1.70;;;33.70;99.90;;;;;;5073057;28;20172;-74
2023/07/10 10:15:03;;;;;;;6.38;2.05;;;33.80;99.90;;;;;;5052979;28;20185;-72
2023/07/10 10:17:33;;;;;;;3.20;2.13;;;34.30;99.90;;;;;;5052719;28;20181;-74
2023/07/10 10:20:26;;;;;;;3.45;1.65;;;34.40;99.90;;;;;;5053084;28;20220;-73
2023/07/10 10:22:52;;;;;;;6.22;2.50;;;33.70;99.90;;;;;;5033467;28;20213;-74
2023/07/10 10:25:23;;;;;;;2.08;1.70;;;34.70;99.90;;;;;;5053068;28;20222;-75
2023/07/10 10:28:17;;;;;;;2.05;1.67;;;35.50;99.90;;;;;;5066774;28;20163;-74
2023/07/10 10:30:50;;;;;;;4.13;2.13;;;35.70;99.90;;;;;;5060341;28;20172;-75
2023/07/10 10:33:21;;;;;;;4.88;1.70;;;34.40;99.90;;;;;;5052394;28;20276;-77
2023/07/10 10:36:19;;;;;;;4.68;2.03;;;33.40;99.90;;;;;;5051872;28;20165;-75
2023/07/10 10:39:01;;;;;;;3.42;1.75;;;32.10;99.90;;;;;;5067352;28;20270;-75
2023/07/10 10:41:45;;;;;;;2.35;1.90;;;31.60;1.00;;;;;;5071324;28;20164;-78
2023/07/10 10:44:41;;;;;;;3.50;2.10;;;31.20;1.00;;;;;;5071688;28;20230;-78
2023/07/10 10:47:24;;;;;;;3.95;1.70;;;31.00;1.00;;;;;;5072005;28;20164;-78
2023/07/10 10:50:23;;;;;;;5.80;1.88;;;29.90;24.10;;;;;;5056146;28;20177;-77
2023/07/10 10:53:07;;;;;;;3.22;1.75;;;30.40;62.00;;;;;;5059544;28;20173;-78
2023/07/10 10:56:26;;;;;;;3.03;1.70;;;31.10;1.00;;;;;;5051655;28;20181;-80
2023/07/10 10:59:16;;;;;;;3.38;1.80;;;31.40;1.00;;;;;;5003431;28;20174;-78
2023/07/10 11:01:48;;;;;;;3.60;1.63;;;31.30;1.00;;;;;;5000233;28;20190;-78
2023/07/10 11:04:39;;;;;;;2.55;1.58;;;31.60;1.00;;;;;;5058077;28;20217;-79
2023/07/10 11:07:18;;;;;;;3.20;1.77;;;31.90;1.00;;;;;;5055873;28;20181;-80
2023/07/10 11:09:53;;;;;;;2.03;1.40;;;32.20;1.00;;;;;;5057176;28;20303;-79
2023/07/10 11:12:38;;;;;;;2.42;1.83;;;32.20;1.00;;;;;;5036075;28;20189;-79
2023/07/10 11:15:14;;;;;;;3.78;1.95;;;32.90;99.90;;;;;;5066860;28;20302;-78
2023/07/10 11:17:42;;;;;;;5.65;2.22;;;32.80;99.90;;;;;;5062033;28;20219;-78
2023/07/10 11:20:15;;;;;;;5.25;2.38;;;32.50;1.00;;;;;;5053236;28;20546;-79
2023/07/10 11:22:58;;;;;;;4.72;2.00;;;32.70;99.90;;;;;;5059410;28;20200;-80
2023/07/10 11:25:38;;;;;;;3.45;1.83;;;31.90;1.00;;;;;;5060078;28;20217;-79
2023/07/10 11:28:27;;;;;;;3.55;1.80;;;31.90;1.00;;;;;;5057748;28;20985;-79
2023/07/10 11:31:17;;;;;;;5.28;2.28;;;31.60;1.00;;;;;;5030750;28;20267;-78
2023/07/10 11:33:43;;;;;;;4.75;2.35;;;30.90;1.00;;;;;;5059217;28;20169;-76
2023/07/10 11:36:42;;;;;;;5.60;2.10;;;30.50;99.90;;;;;;5064375;28;20283;-76
2023/07/10 11:39:11;;;;;;;2.90;1.80;;;30.90;99.90;;;;;;5069709;28;20289;-78
2023/07/10 11:41:43;;;;;;;5.00;2.28;;;30.80;99.90;;;;;;5066923;28;20180;-75
2023/07/10 11:44:33;;;;;;;3.63;2.00;;;31.20;97.40;;;;;;5057240;28;20251;-77
2023/07/10 11:47:04;;;;;;;4.38;1.98;;;30.60;99.90;;;;;;5061199;28;20176;-77
2023/07/10 11:49:45;;;;;;;3.83;2.30;;;30.60;99.90;;;;;;5058098;28;20185;-77
2023/07/10 11:52:13;;;;;;;3.30;2.20;;;31.30;99.90;;;;;;5042405;28;20181;-78
2023/07/10 11:54:45;;;;;;;2.47;2.20;;;30.90;99.90;;;;;;5049991;28;20180;-77
2023/07/10 11:57:15;;;;;;;3.25;2.30;;;31.00;99.90;;;;;;5070245;28;20604;-77
2023/07/10 11:59:48;;;;;;;4.25;2.00;;;30.90;99.90;;;;;;5048025;28;20179;-78
2023/07/10 12:02:44;;;;;;;3.13;2.40;;;30.50;1.00;;;;;;5070073;28;20187;-76
2023/07/10 12:05:19;;;;;;;3.95;2.20;;;30.60;99.90;;;;;;5066293;28;20184;-77
2023/07/10 12:07:54;;;;;;;2.65;2.08;;;30.50;99.90;;;;;;5072066;28;20164;-77
2023/07/10 12:10:21;;;;;;;6.10;2.47;;;29.90;1.00;;;;;;5055324;28;20172;-76
2023/07/10 12:12:46;;;;;;;4.97;2.42;;;30.20;99.90;;;;;;5068945;28;20172;-78
2023/07/10 12:15:12;;;;;;;2.67;2.03;;;30.40;99.90;;;;;;5063641;28;20284;-76
2023/07/10 12:17:39;;;;;;;2.85;2.33;;;30.10;99.90;;;;;;5072841;28;20169;-77
2023/07/10 12:20:22;;;;;;;5.90;2.47;;;29.80;99.90;;;;;;5065307;28;20252;-79
2023/07/10 12:22:50;;;;;;;3.70;2.35;;;29.40;1.00;;;;;;5071919;28;20670;-78
2023/07/10 12:25:18;;;;;;;2.75;2.47;;;29.10;75.00;;;;;;5073881;28;20511;-78
2023/07/10 12:27:44;;;;;;;3.50;2.15;;;29.10;1.00;;;;;;5074249;28;20172;-78
2023/07/10 12:30:19;;;;;;;3.42;2.30;;;29.30;1.00;;;;;;5058237;28;20707;-78
2023/07/10 12:32:53;;;;;;;6.43;2.30;;;29.10;1.00;;;;;;5066354;28;20176;-77
2023/07/10 12:35:37;;;;;;;4.43;2.40;;;29.00;99.90;;;;;;5065830;28;20178;-78
2023/07/10 12:38:07;;;;;;;3.35;2.10;;;28.90;1.00;;;;;;5075012;28;20175;-77
2023/07/10 12:40:33;;;;;;;3.92;2.35;;;28.70;1.00;;;;;;5070447;28;20185;-76
2023/07/10 12:43:24;;;;;;;3.30;2.08;;;28.60;99.90;;;;;;5068837;28;20352;-76
2023/07/10 12:46:01;;;;;;;2.55;2.10;;;28.80;1.00;;;;;;5056739;28;20675;-76
2023/07/10 12:48:31;;;;;;;3.95;2.20;;;28.70;99.90;;;;;;5071199;28;20180;-77
2023/07/10 12:51:00;;;;;;;5.97;2.15;;;29.30;1.00;;;;;;5069353;28;20671;-76
2023/07/10 12:53:33;;;;;;;3.45;2.10;;;29.40;1.00;;;;;;5065658;28;20192;-77
2023/07/10 12:56:05;;;;;;;5.78;2.42;;;29.70;99.90;;;;;;5056789;28;20184;-78
2023/07/10 12:58:31;;;;;;;2.40;2.10;;;30.10;99.90;;;;;;5073470;28;20165;-80
2023/07/10 13:01:03;;;;;;;4.47;2.40;;;29.90;5.10;;;;;;5063843;28;20689;-77
2023/07/10 13:03:30;;;;;;;2.97;2.65;;;29.70;99.90;;;;;;5072155;28;20204;-77